Terminal Aerodrome Forecast
Issued by NWS

Current Version | Previous Version | Text Only | Print | Product List | Glossary Off
Versions: 1 2 3 4 5 6 7 8 9 10 11 12 13

000
FTUS41 KILN 240520
TAFLCK
TAF
KLCK 240520Z 2406/2506 07003KT P6SM FEW250
     FM241500 09006KT P6SM SCT250
     FM250000 11003KT P6SM SCT250=

USA.gov is the U.S. government's official web portal to all federal, state and local government web resources and services.